Time;durP1;ratioP1;P1;durP2;ratioP2;P2;SDS_P1;SDS_P2;PMS_P1;PMS_P2;Temp;Humidity;BMP_temperature;BMP_pressure;BME280_temperature;BME280_humidity;BME280_pressure;Samples;Min_cycle;Max_cycle;Signal;HPM_P1;HPM_P2
2021/06/15 00:00:49;;;;;;;8.07;3.97;;;;;;;;;;5069060;28;20087;-63
2021/06/15 00:03:23;;;;;;;9.63;4.15;;;;;;;;;;5067442;28;20124;-63
2021/06/15 00:05:51;;;;;;;6.50;3.58;;;;;;;;;;5069700;28;20099;-63
2021/06/15 00:08:21;;;;;;;7.00;3.60;;;;;;;;;;5068026;28;20079;-63
2021/06/15 00:10:49;;;;;;;6.18;3.47;;;;;;;;;;5071691;28;20048;-63
2021/06/15 00:13:18;;;;;;;8.40;4.30;;;;;;;;;;5072600;28;20575;-63
2021/06/15 00:15:48;;;;;;;5.75;3.72;;;;;;;;;;5071626;28;20052;-63
2021/06/15 00:18:16;;;;;;;8.65;4.07;;;;;;;;;;5072165;28;20083;-63
2021/06/15 00:20:45;;;;;;;7.38;4.20;;;;;;;;;;5072125;28;20048;-63
2021/06/15 00:23:14;;;;;;;7.75;3.63;;;;;;;;;;5072067;28;20051;-63
2021/06/15 00:25:43;;;;;;;6.75;3.63;;;;;;;;;;5072531;28;20371;-63
2021/06/15 00:28:12;;;;;;;8.00;3.50;;;;;;;;;;5071987;28;20123;-63
2021/06/15 00:30:40;;;;;;;7.90;4.45;;;;;;;;;;5072020;28;20143;-63
2021/06/15 00:33:09;;;;;;;6.80;4.10;;;;;;;;;;5070584;28;20044;-63
2021/06/15 00:35:37;;;;;;;6.38;3.70;;;;;;;;;;5071443;28;20119;-63
2021/06/15 00:38:06;;;;;;;5.85;3.88;;;;;;;;;;5071247;28;20131;-63
2021/06/15 00:40:34;;;;;;;10.38;4.53;;;;;;;;;;5071574;28;20045;-63
2021/06/15 00:43:04;;;;;;;8.85;4.45;;;;;;;;;;5072191;28;20050;-63
2021/06/15 00:45:32;;;;;;;8.48;4.05;;;;;;;;;;5070327;28;20058;-63
2021/06/15 00:48:01;;;;;;;9.13;4.03;;;;;;;;;;5071728;28;20044;-63
2021/06/15 00:50:30;;;;;;;9.10;4.60;;;;;;;;;;5070950;28;20057;-63
2021/06/15 00:52:59;;;;;;;8.40;4.35;;;;;;;;;;5072438;28;20081;-63
2021/06/15 00:55:27;;;;;;;9.30;4.47;;;;;;;;;;5069012;28;20457;-63
2021/06/15 00:57:56;;;;;;;7.03;3.75;;;;;;;;;;5070181;28;20050;-63
2021/06/15 01:00:25;;;;;;;6.93;4.13;;;;;;;;;;5072709;28;20056;-63
2021/06/15 01:02:54;;;;;;;6.00;4.05;;;;;;;;;;5096606;22;20143;-59
2021/06/15 01:05:22;;;;;;;7.05;4.10;;;;;;;;;;5085282;28;20158;-58
2021/06/15 01:07:56;;;;;;;6.63;4.28;;;;;;;;;;5087098;28;20044;-58
2021/06/15 01:10:32;;;;;;;9.15;4.25;;;;;;;;;;5080585;28;20044;-58
2021/06/15 01:13:00;;;;;;;;;;;;;;;;;;5089511;28;20139;-59
2021/06/15 01:15:33;;;;;;;7.40;3.75;;;;;;;;;;5087073;28;19920;-58
2021/06/15 01:18:04;;;;;;;6.85;4.18;;;;;;;;;;5085603;28;20049;-57
2021/06/15 01:20:35;;;;;;;7.38;4.38;;;;;;;;;;5085139;28;20048;-57
2021/06/15 01:23:12;;;;;;;7.43;4.70;;;;;;;;;;5090005;28;20131;-57
2021/06/15 01:25:58;;;;;;;5.55;3.53;;;;;;;;;;5089002;28;20055;-58
2021/06/15 01:28:29;;;;;;;10.23;4.05;;;;;;;;;;5089927;28;20044;-58
2021/06/15 01:30:59;;;;;;;10.57;4.50;;;;;;;;;;5091262;28;20137;-58
2021/06/15 01:33:28;;;;;;;7.70;4.68;;;;;;;;;;5087949;28;20040;-58
2021/06/15 01:35:58;;;;;;;6.10;3.90;;;;;;;;;;5083355;28;20562;-57
2021/06/15 01:38:38;;;;;;;7.00;4.00;;;;;;;;;;5088071;28;20040;-58
2021/06/15 01:41:09;;;;;;;9.50;4.10;;;;;;;;;;5090638;28;20095;-58
2021/06/15 01:43:41;;;;;;;9.57;4.03;;;;;;;;;;5088007;28;20119;-58
2021/06/15 01:46:10;;;;;;;6.43;3.88;;;;;;;;;;5090144;28;20059;-58
2021/06/15 01:48:41;;;;;;;7.32;4.07;;;;;;;;;;5089494;28;20503;-58
2021/06/15 01:51:11;;;;;;;5.30;4.40;;;;;;;;;;5089340;28;20054;-58
2021/06/15 01:53:42;;;;;;;4.72;3.83;;;;;;;;;;5089571;28;20036;-58
2021/06/15 01:56:12;;;;;;;6.93;4.32;;;;;;;;;;5083131;28;20127;-59
2021/06/15 01:58:43;;;;;;;6.22;3.78;;;;;;;;;;5087457;28;20055;-59
2021/06/15 02:01:12;;;;;;;8.35;4.90;;;;;;;;;;5088051;28;20498;-59
2021/06/15 02:03:41;;;;;;;11.80;4.72;;;;;;;;;;5088958;28;20044;-58
2021/06/15 02:06:10;;;;;;;6.47;4.20;;;;;;;;;;5089113;28;20075;-58
2021/06/15 02:08:41;;;;;;;5.25;3.85;;;;;;;;;;5088925;28;20130;-58
2021/06/15 02:11:09;;;;;;;6.00;3.95;;;;;;;;;;5089548;28;20143;-59
2021/06/15 02:13:39;;;;;;;6.95;4.30;;;;;;;;;;5079827;28;20567;-57
2021/06/15 02:16:09;;;;;;;7.95;4.60;;;;;;;;;;5087481;28;20044;-58
2021/06/15 02:18:41;;;;;;;7.18;3.75;;;;;;;;;;5089808;28;20048;-58
2021/06/15 02:21:10;;;;;;;4.93;3.95;;;;;;;;;;5087354;28;20054;-58
2021/06/15 02:23:39;;;;;;;6.85;4.53;;;;;;;;;;5090781;28;20138;-58
2021/06/15 02:26:09;;;;;;;7.30;4.15;;;;;;;;;;5087741;28;20385;-57
2021/06/15 02:28:37;;;;;;;5.53;4.35;;;;;;;;;;5087656;28;20122;-59
2021/06/15 02:31:06;;;;;;;8.07;4.47;;;;;;;;;;5085324;28;20159;-58
2021/06/15 02:33:38;;;;;;;10.43;4.53;;;;;;;;;;5089485;28;20044;-59
2021/06/15 02:36:09;;;;;;;6.90;4.30;;;;;;;;;;5088288;28;20048;-59
2021/06/15 02:38:39;;;;;;;10.52;4.20;;;;;;;;;;5084140;28;20044;-59
2021/06/15 02:41:10;;;;;;;5.78;3.90;;;;;;;;;;5087882;28;20043;-59
2021/06/15 02:43:40;;;;;;;7.85;4.53;;;;;;;;;;5083365;28;20609;-58
2021/06/15 02:46:10;;;;;;;8.27;4.47;;;;;;;;;;5085217;28;20130;-58
2021/06/15 02:48:41;;;;;;;7.32;4.32;;;;;;;;;;5085564;28;20068;-58
2021/06/15 02:51:10;;;;;;;7.28;4.28;;;;;;;;;;5087584;28;20041;-58
2021/06/15 02:53:41;;;;;;;7.25;4.05;;;;;;;;;;5076341;28;20040;-58
2021/06/15 02:56:14;;;;;;;8.10;4.47;;;;;;;;;;5089123;28;20079;-59
2021/06/15 02:58:42;;;;;;;8.35;5.05;;;;;;;;;;5087793;28;20487;-58
2021/06/15 03:01:10;;;;;;;9.25;5.22;;;;;;;;;;5087829;28;20046;-59
2021/06/15 03:03:40;;;;;;;9.52;4.43;;;;;;;;;;5089322;28;20044;-59
2021/06/15 03:06:09;;;;;;;7.47;4.57;;;;;;;;;;5077729;28;20044;-59
2021/06/15 03:08:37;;;;;;;7.78;4.72;;;;;;;;;;5087862;28;20123;-58
2021/06/15 03:11:07;;;;;;;7.43;4.93;;;;;;;;;;5079451;28;20067;-58
2021/06/15 03:13:38;;;;;;;6.72;4.47;;;;;;;;;;5086647;28;20071;-57
2021/06/15 03:16:08;;;;;;;10.68;4.93;;;;;;;;;;5089671;28;20150;-58
2021/06/15 03:18:38;;;;;;;6.53;4.32;;;;;;;;;;5087033;28;20484;-58
2021/06/15 03:21:10;;;;;;;7.85;4.70;;;;;;;;;;5090571;28;20055;-59
2021/06/15 03:23:43;;;;;;;8.07;4.45;;;;;;;;;;5071114;28;20476;-58
2021/06/15 03:26:14;;;;;;;10.45;4.82;;;;;;;;;;5077927;28;20044;-58
2021/06/15 03:28:45;;;;;;;8.35;4.68;;;;;;;;;;5088782;28;20044;-58
2021/06/15 03:31:14;;;;;;;8.60;4.93;;;;;;;;;;5089591;28;20359;-58
2021/06/15 03:33:43;;;;;;;6.78;4.63;;;;;;;;;;5084365;28;20061;-58
2021/06/15 03:36:13;;;;;;;9.30;5.47;;;;;;;;;;5078256;28;20044;-58
2021/06/15 03:38:43;;;;;;;16.35;6.13;;;;;;;;;;5082948;28;20043;-58
2021/06/15 03:41:12;;;;;;;12.35;6.07;;;;;;;;;;5074720;28;20052;-58
2021/06/15 03:43:44;;;;;;;9.52;5.25;;;;;;;;;;5089800;28;20046;-58
2021/06/15 03:46:14;;;;;;;10.60;5.65;;;;;;;;;;5091369;28;20039;-58
2021/06/15 03:48:43;;;;;;;8.27;4.80;;;;;;;;;;5091522;28;20044;-58
2021/06/15 03:51:14;;;;;;;10.75;5.15;;;;;;;;;;5086928;28;20044;-59
2021/06/15 03:53:42;;;;;;;11.43;5.10;;;;;;;;;;5076158;28;20044;-58
2021/06/15 03:56:11;;;;;;;12.30;5.40;;;;;;;;;;5085381;28;20070;-59
2021/06/15 03:58:40;;;;;;;10.07;5.07;;;;;;;;;;5089261;28;20396;-59
2021/06/15 04:01:10;;;;;;;12.00;5.03;;;;;;;;;;5085511;28;20040;-58
2021/06/15 04:03:40;;;;;;;9.40;5.00;;;;;;;;;;5075207;28;20454;-58
2021/06/15 04:06:08;;;;;;;6.50;4.50;;;;;;;;;;5076145;28;20521;-58
2021/06/15 04:08:39;;;;;;;7.75;4.78;;;;;;;;;;5084680;28;20051;-58
2021/06/15 04:11:07;;;;;;;6.97;4.47;;;;;;;;;;5086447;28;20425;-58
2021/06/15 04:13:36;;;;;;;8.18;4.88;;;;;;;;;;5087846;28;20052;-59
2021/06/15 04:16:05;;;;;;;6.95;4.85;;;;;;;;;;5086958;28;20052;-58
2021/06/15 04:18:36;;;;;;;9.52;5.38;;;;;;;;;;5089292;28;20095;-58
2021/06/15 04:21:06;;;;;;;8.50;4.82;;;;;;;;;;5087234;28;20127;-58
2021/06/15 04:23:40;;;;;;;11.93;5.68;;;;;;;;;;5088728;28;20517;-58
2021/06/15 04:26:09;;;;;;;9.30;5.00;;;;;;;;;;5083596;28;20326;-58
2021/06/15 04:28:38;;;;;;;9.95;5.10;;;;;;;;;;5087323;28;20127;-58
2021/06/15 04:31:07;;;;;;;9.30;5.22;;;;;;;;;;5082385;28;20040;-58
2021/06/15 04:33:36;;;;;;;12.65;5.10;;;;;;;;;;5088505;28;20228;-57
2021/06/15 04:36:06;;;;;;;7.63;4.95;;;;;;;;;;5086511;28;20142;-57
2021/06/15 04:38:39;;;;;;;9.45;4.80;;;;;;;;;;5086837;28;20051;-57
2021/06/15 04:41:09;;;;;;;8.27;4.70;;;;;;;;;;5085694;28;20385;-58
2021/06/15 04:43:39;;;;;;;11.27;5.47;;;;;;;;;;5086677;28;20048;-58
2021/06/15 04:46:10;;;;;;;9.32;4.57;;;;;;;;;;5086674;28;20127;-59
2021/06/15 04:48:39;;;;;;;7.85;4.97;;;;;;;;;;5080846;28;20056;-58
2021/06/15 04:51:10;;;;;;;9.30;4.80;;;;;;;;;;5082891;28;20127;-59
2021/06/15 04:53:40;;;;;;;9.75;5.03;;;;;;;;;;5088285;28;20040;-58
2021/06/15 04:56:10;;;;;;;11.85;5.35;;;;;;;;;;5083803;28;20123;-59
2021/06/15 04:58:39;;;;;;;11.27;5.63;;;;;;;;;;5081790;28;20444;-58
2021/06/15 05:01:07;;;;;;;7.25;4.85;;;;;;;;;;5076535;28;20052;-59
2021/06/15 05:03:35;;;;;;;7.88;4.93;;;;;;;;;;5082562;28;20510;-58
2021/06/15 05:06:05;;;;;;;8.70;4.93;;;;;;;;;;5084708;28;20064;-58
2021/06/15 05:08:35;;;;;;;10.20;5.45;;;;;;;;;;5085875;28;20131;-58
2021/06/15 05:11:04;;;;;;;7.43;5.20;;;;;;;;;;5085947;28;20134;-58
2021/06/15 05:13:35;;;;;;;10.02;5.70;;;;;;;;;;5085229;28;20569;-58
2021/06/15 05:16:04;;;;;;;10.55;5.05;;;;;;;;;;5087146;28;20134;-58
2021/06/15 05:18:34;;;;;;;13.88;6.63;;;;;;;;;;5075895;28;20045;-58
2021/06/15 05:21:03;;;;;;;13.82;7.47;;;;;;;;;;5088459;28;20159;-58
2021/06/15 05:23:34;;;;;;;11.77;6.80;;;;;;;;;;5083810;28;20154;-58
2021/06/15 05:26:03;;;;;;;18.00;7.68;;;;;;;;;;5077732;28;20084;-59
2021/06/15 05:28:31;;;;;;;17.65;8.27;;;;;;;;;;5086306;28;20431;-58
2021/06/15 05:31:01;;;;;;;11.88;7.10;;;;;;;;;;5076426;28;20483;-58
2021/06/15 05:33:29;;;;;;;15.85;7.93;;;;;;;;;;5081076;28;20058;-58
2021/06/15 05:35:58;;;;;;;20.02;8.23;;;;;;;;;;5077063;28;20062;-58
2021/06/15 05:38:26;;;;;;;15.35;6.85;;;;;;;;;;5085680;28;20054;-58
2021/06/15 05:40:55;;;;;;;15.88;7.82;;;;;;;;;;5086981;28;20523;-59
2021/06/15 05:43:23;;;;;;;14.52;8.65;;;;;;;;;;5086658;28;20469;-58
2021/06/15 05:45:51;;;;;;;22.25;8.98;;;;;;;;;;5088071;28;20048;-58
2021/06/15 05:48:21;;;;;;;14.95;9.35;;;;;;;;;;5082943;28;20075;-59
2021/06/15 05:50:50;;;;;;;17.83;7.80;;;;;;;;;;5075862;28;20369;-58
2021/06/15 05:53:18;;;;;;;13.30;8.57;;;;;;;;;;5078726;28;20091;-59
2021/06/15 05:55:46;;;;;;;15.13;8.88;;;;;;;;;;5087078;28;20493;-59
2021/06/15 05:58:15;;;;;;;22.05;7.55;;;;;;;;;;5083140;28;20151;-59
2021/06/15 06:00:44;;;;;;;18.10;8.25;;;;;;;;;;5074999;28;20404;-59
2021/06/15 06:03:17;;;;;;;16.15;7.13;;;;;;;;;;5083107;28;20055;-59
2021/06/15 06:08:33;;;;;;;16.15;7.75;;;;;;;;;;5049289;28;20149;-58
2021/06/15 06:11:02;;;;;;;13.82;7.80;;;;;;;;;;5084815;28;20052;-59
2021/06/15 06:13:30;;;;;;;11.88;7.95;;;;;;;;;;5086836;28;20073;-59
2021/06/15 06:16:02;;;;;;;14.40;7.90;;;;;;;;;;5074412;28;20135;-58
2021/06/15 06:18:30;;;;;;;16.60;6.97;;;;;;;;;;5086020;28;20048;-58
2021/06/15 06:21:02;;;;;;;18.35;7.60;;;;;;;;;;5085173;28;20127;-58
2021/06/15 06:23:30;;;;;;;19.73;7.55;;;;;;;;;;5087126;28;20144;-58
2021/06/15 06:25:59;;;;;;;15.98;6.55;;;;;;;;;;5085647;28;20052;-58
2021/06/15 06:28:27;;;;;;;12.93;7.80;;;;;;;;;;5084243;28;20040;-57
2021/06/15 06:30:55;;;;;;;15.68;6.90;;;;;;;;;;5085475;28;20091;-58
2021/06/15 06:33:23;;;;;;;12.48;6.55;;;;;;;;;;5082653;28;20047;-58
2021/06/15 06:35:52;;;;;;;13.45;6.45;;;;;;;;;;5083050;28;20144;-58
2021/06/15 06:38:22;;;;;;;18.45;6.40;;;;;;;;;;5082366;28;20044;-59
2021/06/15 06:40:51;;;;;;;13.18;6.68;;;;;;;;;;5088390;28;20460;-58
2021/06/15 06:43:19;;;;;;;11.85;5.88;;;;;;;;;;5090326;28;20080;-59
2021/06/15 06:45:48;;;;;;;15.52;5.85;;;;;;;;;;5085030;28;20403;-59
2021/06/15 06:48:18;;;;;;;11.63;5.45;;;;;;;;;;5082794;28;20522;-58
2021/06/15 06:50:46;;;;;;;14.82;5.63;;;;;;;;;;5070807;28;20139;-58
2021/06/15 06:53:16;;;;;;;14.82;5.25;;;;;;;;;;5085363;28;20044;-59
2021/06/15 06:55:45;;;;;;;11.45;5.28;;;;;;;;;;5089105;28;20545;-58
2021/06/15 06:58:14;;;;;;;12.88;4.95;;;;;;;;;;5087361;28;20039;-59
2021/06/15 07:00:42;;;;;;;10.45;5.00;;;;;;;;;;5091228;28;20044;-58
2021/06/15 07:03:11;;;;;;;11.57;4.85;;;;;;;;;;5088163;28;20048;-58
2021/06/15 07:05:40;;;;;;;9.68;4.28;;;;;;;;;;5086542;28;20048;-59
2021/06/15 07:08:09;;;;;;;9.95;4.60;;;;;;;;;;5089518;28;20045;-58
2021/06/15 07:10:38;;;;;;;11.48;4.68;;;;;;;;;;5091544;28;20087;-58
2021/06/15 07:13:08;;;;;;;9.35;4.07;;;;;;;;;;5088461;28;20130;-59
2021/06/15 07:15:37;;;;;;;12.02;3.80;;;;;;;;;;5091820;28;20057;-59
2021/06/15 07:18:06;;;;;;;10.60;4.15;;;;;;;;;;5087376;28;20060;-58
2021/06/15 07:20:35;;;;;;;6.70;3.95;;;;;;;;;;5089890;28;20040;-59
2021/06/15 07:23:04;;;;;;;9.02;4.22;;;;;;;;;;5092497;28;20506;-59
2021/06/15 07:25:33;;;;;;;10.57;3.97;;;;;;;;;;5094438;28;20048;-59
2021/06/15 07:28:02;;;;;;;8.27;4.30;;;;;;;;;;5093307;28;20063;-57
2021/06/15 07:30:32;;;;;;;6.50;3.78;;;;;;;;;;5093743;28;20051;-58
2021/06/15 07:33:01;;;;;;;10.48;3.90;;;;;;;;;;5093223;28;20090;-57
2021/06/15 07:35:30;;;;;;;13.07;4.13;;;;;;;;;;5087738;28;20098;-57
2021/06/15 07:37:59;;;;;;;7.38;4.10;;;;;;;;;;5092505;28;20048;-58
2021/06/15 07:40:27;;;;;;;7.60;3.75;;;;;;;;;;5092150;28;20141;-58
2021/06/15 07:42:57;;;;;;;17.80;5.00;;;;;;;;;;5091838;28;20130;-58
2021/06/15 07:45:27;;;;;;;14.45;5.15;;;;;;;;;;5092999;28;20048;-58
2021/06/15 07:47:57;;;;;;;11.85;4.43;;;;;;;;;;5093557;28;20052;-58
2021/06/15 07:50:26;;;;;;;12.45;4.38;;;;;;;;;;5093341;28;20044;-58
2021/06/15 07:52:55;;;;;;;7.03;3.85;;;;;;;;;;5092224;28;20067;-58
2021/06/15 07:55:24;;;;;;;10.98;3.88;;;;;;;;;;5089360;28;20040;-59
2021/06/15 07:57:52;;;;;;;12.30;4.05;;;;;;;;;;5093013;28;20087;-59
2021/06/15 08:00:21;;;;;;;12.07;3.70;;;;;;;;;;5092321;28;20055;-58
2021/06/15 08:02:50;;;;;;;8.13;3.17;;;;;;;;;;5093143;28;20165;-58
2021/06/15 08:05:21;;;;;;;6.25;3.00;;;;;;;;;;5084972;28;20056;-59
2021/06/15 08:07:51;;;;;;;9.15;3.63;;;;;;;;;;5075953;28;20400;-59
2021/06/15 08:10:20;;;;;;;7.80;3.08;;;;;;;;;;5089345;28;20071;-58
2021/06/15 08:12:49;;;;;;;8.05;2.92;;;;;;;;;;5093164;28;20048;-59
2021/06/15 08:15:18;;;;;;;5.75;3.00;;;;;;;;;;5089360;28;20044;-59
2021/06/15 08:17:46;;;;;;;11.80;2.90;;;;;;;;;;5091163;28;20139;-59
2021/06/15 08:20:15;;;;;;;6.13;2.55;;;;;;;;;;5090016;28;20559;-59
2021/06/15 08:22:50;;;;;;;7.03;3.25;;;;;;;;;;5090827;28;20067;-59
2021/06/15 08:25:19;;;;;;;6.47;3.00;;;;;;;;;;5089910;28;20052;-59
2021/06/15 08:27:48;;;;;;;9.23;3.17;;;;;;;;;;5081592;28;20079;-59
2021/06/15 08:30:17;;;;;;;4.28;2.42;;;;;;;;;;5089064;28;20495;-59
2021/06/15 08:32:45;;;;;;;5.47;2.78;;;;;;;;;;5080740;28;20083;-59
2021/06/15 08:35:14;;;;;;;10.85;2.75;;;;;;;;;;5080740;28;20083;-60
2021/06/15 08:37:42;;;;;;;6.43;2.55;;;;;;;;;;5078962;28;20048;-59
2021/06/15 08:40:13;;;;;;;8.88;3.30;;;;;;;;;;5084309;28;20488;-59
2021/06/15 08:42:42;;;;;;;6.10;2.65;;;;;;;;;;5083956;28;20048;-59
2021/06/15 08:45:12;;;;;;;3.70;2.22;;;;;;;;;;5084923;28;20390;-59
2021/06/15 08:47:42;;;;;;;6.15;2.30;;;;;;;;;;5085826;28;20047;-59
2021/06/15 08:50:13;;;;;;;5.25;2.53;;;;;;;;;;5090126;28;20517;-59
2021/06/15 08:52:42;;;;;;;7.40;2.25;;;;;;;;;;5083948;28;20090;-59
2021/06/15 08:55:13;;;;;;;4.80;2.40;;;;;;;;;;5087884;28;20163;-59
2021/06/15 08:57:43;;;;;;;7.30;2.33;;;;;;;;;;5091159;28;20082;-59
2021/06/15 09:00:13;;;;;;;4.43;2.10;;;;;;;;;;5084826;28;20090;-59
2021/06/15 09:02:43;;;;;;;5.57;2.05;;;;;;;;;;5086922;28;20376;-59
2021/06/15 09:05:14;;;;;;;5.57;2.20;;;;;;;;;;5082829;28;20083;-59
2021/06/15 09:08:16;;;;;;;6.38;1.77;;;;;;;;;;5083185;28;20576;-59
2021/06/15 09:10:47;;;;;;;6.82;2.50;;;;;;;;;;5002162;28;20050;-59
2021/06/15 09:13:36;;;;;;;3.40;2.38;;;;;;;;;;5002563;28;20041;-59
2021/06/15 09:16:19;;;;;;;3.90;1.85;;;;;;;;;;5058271;28;20552;-59
2021/06/15 09:18:48;;;;;;;7.07;2.13;;;;;;;;;;5089340;28;20054;-59
2021/06/15 09:21:37;;;;;;;6.10;2.40;;;;;;;;;;5084784;28;20101;-59
2021/06/15 09:24:06;;;;;;;8.57;2.65;;;;;;;;;;5086999;28;20052;-60
2021/06/15 09:26:49;;;;;;;6.05;2.38;;;;;;;;;;5084897;28;20462;-59
2021/06/15 09:29:19;;;;;;;4.40;2.17;;;;;;;;;;5086992;28;20531;-59
2021/06/15 09:31:55;;;;;;;6.95;2.58;;;;;;;;;;5076241;28;20047;-59
2021/06/15 09:34:23;;;;;;;9.23;2.55;;;;;;;;;;5083765;28;20499;-59
2021/06/15 09:36:54;;;;;;;6.65;2.25;;;;;;;;;;5085372;28;20582;-59
2021/06/15 09:39:22;;;;;;;6.68;2.60;;;;;;;;;;5089811;28;20518;-59
2021/06/15 09:41:51;;;;;;;6.82;2.35;;;;;;;;;;5069831;28;20109;-59
2021/06/15 09:44:22;;;;;;;4.15;2.20;;;;;;;;;;5079954;28;20101;-60
2021/06/15 09:46:52;;;;;;;5.43;2.20;;;;;;;;;;5081341;28;20459;-59
2021/06/15 09:49:34;;;;;;;8.70;2.45;;;;;;;;;;5092205;28;20040;-60
2021/06/15 09:52:19;;;;;;;4.63;2.38;;;;;;;;;;5086139;28;20084;-59
2021/06/15 09:54:47;;;;;;;;;;;;;;;;;;5088642;28;20117;-59
2021/06/15 09:57:21;;;;;;;7.63;2.20;;;;;;;;;;5086110;28;19989;-59
2021/06/15 10:00:07;;;;;;;8.05;2.35;;;;;;;;;;5089159;28;20052;-59
2021/06/15 10:02:46;;;;;;;6.68;2.22;;;;;;;;;;5081326;28;20125;-59
2021/06/15 10:05:22;;;;;;;6.28;2.20;;;;;;;;;;5082765;28;20048;-60
2021/06/15 10:07:51;;;;;;;3.83;1.90;;;;;;;;;;5087248;28;20075;-59
2021/06/15 10:10:20;;;;;;;4.75;2.10;;;;;;;;;;5087308;28;20044;-59
2021/06/15 10:12:49;;;;;;;7.47;2.20;;;;;;;;;;5089488;28;20125;-60
2021/06/15 10:15:18;;;;;;;2.63;1.80;;;;;;;;;;5088763;28;20048;-59
2021/06/15 10:17:48;;;;;;;5.03;1.67;;;;;;;;;;5086698;28;20561;-58
2021/06/15 10:20:18;;;;;;;2.67;1.73;;;;;;;;;;5088054;28;20060;-58
2021/06/15 10:22:48;;;;;;;4.00;1.60;;;;;;;;;;5078200;28;20041;-58
2021/06/15 10:25:18;;;;;;;6.28;2.30;;;;;;;;;;5091218;28;20147;-58
2021/06/15 10:27:49;;;;;;;4.93;2.00;;;;;;;;;;5089927;28;20518;-58
2021/06/15 10:30:19;;;;;;;4.00;2.10;;;;;;;;;;5090506;28;20135;-58
2021/06/15 10:32:53;;;;;;;6.25;2.00;;;;;;;;;;5091011;28;20036;-59
2021/06/15 10:35:35;;;;;;;3.88;1.55;;;;;;;;;;5087295;28;20464;-59
2021/06/15 10:38:05;;;;;;;6.30;1.98;;;;;;;;;;5070082;28;20056;-58
2021/06/15 10:40:53;;;;;;;5.63;2.00;;;;;;;;;;5078573;28;20044;-59
2021/06/15 10:43:28;;;;;;;5.20;1.83;;;;;;;;;;5082596;28;20127;-58
2021/06/15 10:46:08;;;;;;;5.65;1.88;;;;;;;;;;5090223;28;20052;-59
2021/06/15 10:48:46;;;;;;;5.47;2.60;;;;;;;;;;5068476;28;20483;-59
2021/06/15 10:51:32;;;;;;;6.05;2.63;;;;;;;;;;5088071;28;20388;-58
2021/06/15 10:54:04;;;;;;;8.00;2.20;;;;;;;;;;5088804;28;20056;-58
2021/06/15 10:56:34;;;;;;;4.78;1.92;;;;;;;;;;5088941;28;20131;-59
2021/06/15 10:59:06;;;;;;;1.88;1.55;;;;;;;;;;5088168;28;20154;-58
2021/06/15 11:01:36;;;;;;;6.25;1.80;;;;;;;;;;5076573;28;20040;-58
2021/06/15 11:04:07;;;;;;;5.18;1.80;;;;;;;;;;5082430;28;20044;-59
2021/06/15 11:06:55;;;;;;;3.95;1.70;;;;;;;;;;5085112;28;20055;-59
2021/06/15 11:09:25;;;;;;;5.88;1.77;;;;;;;;;;5088600;28;20170;-60
2021/06/15 11:12:12;;;;;;;4.10;1.65;;;;;;;;;;5089273;28;20048;-59
2021/06/15 11:14:41;;;;;;;3.30;1.52;;;;;;;;;;5084068;28;20464;-59
2021/06/15 11:17:09;;;;;;;1.88;1.15;;;;;;;;;;5084122;28;20435;-59
2021/06/15 11:19:40;;;;;;;3.17;1.58;;;;;;;;;;5088809;28;20044;-59
2021/06/15 11:22:14;;;;;;;3.85;1.75;;;;;;;;;;5105017;28;20048;-59
2021/06/15 11:24:48;;;;;;;4.45;1.50;;;;;;;;;;5088259;28;20090;-59
2021/06/15 11:27:18;;;;;;;2.60;1.67;;;;;;;;;;5084411;28;20141;-59
2021/06/15 11:29:47;;;;;;;5.20;2.20;;;;;;;;;;5076852;28;20047;-59
2021/06/15 11:32:24;;;;;;;6.82;2.00;;;;;;;;;;5077589;28;20138;-59
2021/06/15 11:35:11;;;;;;;4.10;1.42;;;;;;;;;;5087780;28;20040;-59
2021/06/15 11:37:45;;;;;;;2.08;1.30;;;;;;;;;;5091313;28;20151;-58
2021/06/15 11:40:18;;;;;;;2.00;1.27;;;;;;;;;;5087329;28;20126;-58
2021/06/15 11:42:48;;;;;;;4.68;1.40;;;;;;;;;;5068637;28;20052;-58
2021/06/15 11:45:29;;;;;;;2.80;1.70;;;;;;;;;;5084347;28;20056;-59
2021/06/15 11:48:14;;;;;;;2.47;1.50;;;;;;;;;;5081790;28;20072;-58
2021/06/15 11:50:45;;;;;;;3.92;1.52;;;;;;;;;;5083377;28;20448;-59
2021/06/15 11:53:16;;;;;;;2.97;1.55;;;;;;;;;;5087976;28;20129;-59
2021/06/15 11:55:45;;;;;;;3.63;1.63;;;;;;;;;;5087511;28;20040;-59
2021/06/15 11:58:15;;;;;;;4.68;1.90;;;;;;;;;;5087646;28;20464;-59
2021/06/15 12:00:44;;;;;;;3.80;1.77;;;;;;;;;;5086566;28;20052;-58
2021/06/15 12:03:17;;;;;;;4.20;1.58;;;;;;;;;;5087623;28;20052;-59
2021/06/15 12:05:47;;;;;;;8.75;1.85;;;;;;;;;;5090313;28;20052;-59
2021/06/15 12:08:17;;;;;;;4.85;1.60;;;;;;;;;;5090392;28;20052;-59
2021/06/15 12:10:47;;;;;;;3.65;1.98;;;;;;;;;;5091502;28;20082;-58
2021/06/15 12:13:17;;;;;;;4.00;1.42;;;;;;;;;;5092140;28;20472;-59
2021/06/15 12:15:47;;;;;;;2.80;1.80;;;;;;;;;;5086407;28;20037;-58
2021/06/15 12:18:28;;;;;;;3.78;2.03;;;;;;;;;;5091969;28;20054;-58
2021/06/15 12:20:59;;;;;;;2.80;1.77;;;;;;;;;;5089302;28;20055;-58
2021/06/15 12:23:30;;;;;;;2.85;1.52;;;;;;;;;;5086000;28;20101;-59
2021/06/15 12:26:06;;;;;;;5.57;1.90;;;;;;;;;;5089639;28;20050;-59
2021/06/15 12:28:36;;;;;;;2.92;1.80;;;;;;;;;;5090449;28;20048;-59
2021/06/15 12:31:14;;;;;;;3.63;1.77;;;;;;;;;;5090701;28;20051;-59
2021/06/15 12:33:45;;;;;;;5.38;1.88;;;;;;;;;;5087598;28;20135;-58
2021/06/15 12:36:14;;;;;;;4.15;1.88;;;;;;;;;;5091619;28;20221;-58
2021/06/15 12:38:45;;;;;;;3.75;1.77;;;;;;;;;;5083873;28;20480;-59
2021/06/15 12:41:21;;;;;;;1.97;1.52;;;;;;;;;;486690;28;10023502;-59
2021/06/15 12:43:51;;;;;;;5.05;2.00;;;;;;;;;;5089378;28;20264;-59
2021/06/15 12:46:31;;;;;;;3.70;1.60;;;;;;;;;;5077945;28;20048;-59
2021/06/15 12:49:00;;;;;;;5.55;1.88;;;;;;;;;;5090417;28;20044;-58
2021/06/15 12:51:30;;;;;;;4.55;1.80;;;;;;;;;;5090251;28;20047;-59
2021/06/15 12:54:03;;;;;;;4.18;1.75;;;;;;;;;;5090285;28;20134;-59
2021/06/15 12:56:34;;;;;;;4.27;2.10;;;;;;;;;;5079821;28;20090;-58
2021/06/15 12:59:14;;;;;;;4.50;2.20;;;;;;;;;;5076656;28;20911;-59
2021/06/15 13:01:43;;;;;;;2.78;1.80;;;;;;;;;;5072180;28;20052;-59
2021/06/15 13:04:29;;;;;;;7.32;2.88;;;;;;;;;;5084335;28;20480;-58
2021/06/15 13:06:59;;;;;;;6.47;1.73;;;;;;;;;;5090690;28;20117;-59
2021/06/15 13:09:32;;;;;;;3.22;1.90;;;;;;;;;;5090419;28;20093;-59
2021/06/15 13:12:02;;;;;;;5.72;1.73;;;;;;;;;;5084429;28;20052;-58
2021/06/15 13:14:32;;;;;;;5.35;2.47;;;;;;;;;;5089387;28;20044;-59
2021/06/15 13:17:05;;;;;;;5.25;2.05;;;;;;;;;;5086769;28;20044;-59
2021/06/15 13:19:38;;;;;;;4.82;1.88;;;;;;;;;;5083102;28;20067;-59
2021/06/15 13:22:06;;;;;;;5.15;1.92;;;;;;;;;;5090707;28;20094;-59
2021/06/15 13:24:38;;;;;;;4.90;2.20;;;;;;;;;;5088238;28;20056;-58
2021/06/15 13:27:25;;;;;;;4.85;2.10;;;;;;;;;;5085249;28;20059;-59
2021/06/15 13:29:54;;;;;;;3.92;2.28;;;;;;;;;;5089504;28;20066;-59
2021/06/15 13:32:24;;;;;;;4.45;1.88;;;;;;;;;;5089903;28;20064;-58
2021/06/15 13:35:11;;;;;;;5.10;2.05;;;;;;;;;;5084026;28;20048;-59
2021/06/15 13:37:41;;;;;;;4.55;2.30;;;;;;;;;;5071596;28;20499;-59
2021/06/15 13:40:13;;;;;;;4.28;2.15;;;;;;;;;;5090842;28;20047;-59
2021/06/15 13:42:42;;;;;;;4.95;2.25;;;;;;;;;;5091157;28;20093;-59
2021/06/15 13:45:13;;;;;;;3.65;2.13;;;;;;;;;;5089607;28;20044;-59
2021/06/15 13:47:45;;;;;;;5.50;1.98;;;;;;;;;;5079892;28;20472;-59
2021/06/15 13:50:15;;;;;;;3.88;1.92;;;;;;;;;;5085966;28;20152;-59
2021/06/15 13:52:47;;;;;;;2.78;1.90;;;;;;;;;;5088749;28;20053;-58
2021/06/15 13:55:18;;;;;;;5.20;2.15;;;;;;;;;;5081804;28;20048;-59
2021/06/15 13:57:47;;;;;;;5.15;2.25;;;;;;;;;;5080372;28;20132;-59
2021/06/15 14:00:19;;;;;;;4.53;2.10;;;;;;;;;;5087480;28;20402;-59
2021/06/15 14:02:48;;;;;;;5.43;2.15;;;;;;;;;;5086421;28;20052;-58
2021/06/15 14:05:19;;;;;;;3.15;1.80;;;;;;;;;;5078863;28;20405;-58
2021/06/15 14:07:48;;;;;;;4.38;1.95;;;;;;;;;;5084422;28;20478;-58
2021/06/15 14:10:18;;;;;;;5.05;2.30;;;;;;;;;;5086901;28;20106;-58
2021/06/15 14:12:48;;;;;;;4.63;2.45;;;;;;;;;;5087622;28;20116;-59
2021/06/15 14:15:17;;;;;;;7.25;2.20;;;;;;;;;;5081175;28;20565;-58
2021/06/15 14:17:47;;;;;;;3.80;2.00;;;;;;;;;;5083388;28;20142;-59
2021/06/15 14:20:20;;;;;;;5.93;2.30;;;;;;;;;;5089380;28;20427;-59
2021/06/15 14:22:49;;;;;;;7.95;2.15;;;;;;;;;;5086393;28;20052;-58
2021/06/15 14:25:21;;;;;;;6.45;2.70;;;;;;;;;;5088526;28;20055;-59
2021/06/15 14:27:50;;;;;;;3.70;2.40;;;;;;;;;;5085703;28;20068;-58
2021/06/15 14:30:20;;;;;;;3.92;2.05;;;;;;;;;;5079051;28;20082;-58
2021/06/15 14:32:48;;;;;;;7.57;2.28;;;;;;;;;;5081127;28;20049;-60
2021/06/15 14:35:17;;;;;;;5.25;2.20;;;;;;;;;;5088624;28;20584;-59
2021/06/15 14:37:47;;;;;;;3.85;2.30;;;;;;;;;;5088013;28;20083;-60
2021/06/15 14:40:17;;;;;;;3.67;2.00;;;;;;;;;;5085966;28;20048;-60
2021/06/15 14:42:48;;;;;;;5.93;2.13;;;;;;;;;;5088852;28;20514;-58
2021/06/15 14:45:17;;;;;;;5.32;2.25;;;;;;;;;;5081762;28;20051;-58
2021/06/15 14:47:46;;;;;;;3.55;2.20;;;;;;;;;;5089096;28;20642;-59
2021/06/15 14:50:15;;;;;;;2.72;2.00;;;;;;;;;;5075088;28;20043;-59
2021/06/15 14:52:44;;;;;;;3.22;1.92;;;;;;;;;;5087279;28;20044;-59
2021/06/15 14:55:15;;;;;;;4.43;2.28;;;;;;;;;;5077784;28;20349;-59
2021/06/15 14:57:43;;;;;;;5.28;1.67;;;;;;;;;;5086521;28;20056;-59
2021/06/15 15:00:15;;;;;;;3.20;2.10;;;;;;;;;;5085968;28;20388;-59
2021/06/15 15:02:44;;;;;;;6.80;1.75;;;;;;;;;;5084708;28;20070;-59
2021/06/15 15:05:13;;;;;;;3.53;1.55;;;;;;;;;;5084528;28;20488;-59